Phaethon — SVAM2 — position and weather

sailwx.info

Track history (hours):
 
Tides and Currents Weather Stations Pressure Air Temp Water Temp Dewpoint Dewpoint Depression Visibility Wind Speed Wind Dir Waves Ship Positions

Phaethon

Last reported at 2017-Sep-03 12:49 UTC. Time now 2017-Sep-26 02:21 UTC.
Position N 27°10' W 014°20'.
Warning: this ship's position is 22 days out of date.

Length 274 m; draft 9.5 m.

Type: Ship. MMSI: 240836000.

Date/timePositionNaut miles runAvg speedWind from/ knotsBaromVisibWave heightAir tempDewpointWater temp
2017-Sep-03 12:49N 27°10' W 014°20'614.1
2017-Sep-03 12:24N 27°14' W 014°16'614.6
2017-Sep-03 12:00N 27°19' W 014°12'814.5
2017-Sep-03 11:26N 27°25' W 014°06'614.8
2017-Sep-03 11:00N 27°30' W 014°02'915.5
2017-Sep-03 10:23N 27°37' W 013°55'615.1
2017-Sep-03 10:00N 27°42' W 013°50'815.1
2017-Sep-03 09:29N 27°48' W 013°45'714.9
2017-Sep-03 09:00N 27°53' W 013°40'714.7
2017-Sep-03 08:30N 27°59' W 013°34'714.7
2017-Sep-03 08:00N 28°05' W 013°30'814.5
2017-Sep-03 07:27N 28°12' W 013°25'614.6
2017-Sep-03 07:00N 28°17' W 013°21'814.7
2017-Sep-03 06:29N 28°24' W 013°16'715.1
2017-Sep-03 06:00N 28°30' W 013°12'715.1
2017-Sep-03 05:30N 28°36' W 013°07'3414.9
2017-Sep-03 03:15N 29°04' W 012°46'54914.3
2017-Sep-01 12:47N 35°58' W 005°38'413.1
2017-Sep-01 12:30N 35°59' W 005°33'713.7
2017-Sep-01 12:00N 36°01' W 005°25'611.9
2017-Sep-01 11:30N 36°07' W 005°24'2 0.4
2017-Sep-01 06:08N 36°09' W 005°25'0 0.1
2017-Sep-01 05:59N 36°09' W 005°25'0 0.0
2017-Sep-01 05:26N 36°09' W 005°25'0 0.0
2017-Sep-01 04:59N 36°09' W 005°25'0 0.0
2017-Sep-01 04:29N 36°09' W 005°25'0 0.0
2017-Sep-01 03:56N 36°09' W 005°25'0 0.0
2017-Sep-01 03:29N 36°09' W 005°25'0 0.0
2017-Sep-01 02:59N 36°09' W 005°25'0 0.1
2017-Sep-01 02:29N 36°09' W 005°25'0 0.2
2017-Sep-01 01:59N 36°09' W 005°25'0 1.0
2017-Sep-01 01:29N 36°09' W 005°24'1 1.9
2017-Sep-01 01:00N 36°08' W 005°24'2 3.1
2017-Sep-01 00:30N 36°07' W 005°23'3 5.5
2017-Sep-01 00:00N 36°05' W 005°21'5 9.7
2017-Aug-31 23:30N 36°05' W 005°15'510.5
2017-Aug-31 23:00N 36°06' W 005°08'611.1
2017-Aug-31 22:29N 36°07' W 005°01'  
2017-Aug-29 04:36N 37°27' W 001°04'42 7.1
2017-Aug-28 22:39N 36°52' W 001°33'1 6.5
2017-Aug-28 22:30N 36°51' W 001°34'18010.9
2017-Aug-28 06:02N 36°01' W 005°08'115.3
2017-Aug-28 05:59N 36°01' W 005°09'715.5
2017-Aug-28 05:31N 35°60' W 005°18'815.0
2017-Aug-28 05:00N 35°57' W 005°27'713.8
2017-Aug-28 04:29N 35°55' W 005°35'712.7
2017-Aug-28 03:58N 35°54' W 005°43'712.4
2017-Aug-28 03:24N 35°53' W 005°51'  
2017-Aug-25 20:41N 31°15' W 019°03'212.5
2017-Aug-25 20:30N 31°14' W 019°05'612.5
2017-Aug-25 20:00N 31°12' W 019°12'612.4
2017-Aug-25 19:30N 31°10' W 019°19'812.3
2017-Aug-25 18:51N 31°07' W 019°27'712.3
2017-Aug-25 18:15N 31°04' W 019°35'312.3
2017-Aug-25 18:00N 31°03' W 019°39'612.5
2017-Aug-25 17:31N 31°01' W 019°46'2412.6
2017-Aug-25 15:36N 30°53' W 020°12'1512.6
2017-Aug-25 14:24N 30°47' W 020°28'  
Track history (hours):
 
Tides and Currents Weather Stations Pressure Air Temp Water Temp Dewpoint Dewpoint Depression Visibility Wind Speed Wind Dir Waves Ship Positions

Phaethon

Last reported at 2017-Sep-03 12:49 UTC. Time now 2017-Sep-26 02:21 UTC.
Position N 27°10' W 014°20'.
Warning: this ship's position is 22 days out of date.

Length 274 m; draft 9.5 m.

Type: Ship. MMSI: 240836000.

Date/timePositionNaut miles runAvg speedWind from/ knotsBaromVisibWave heightAir tempDewpointWater temp
2017-Sep-03 12:49N 27°10' W 014°20'614.1
2017-Sep-03 12:24N 27°14' W 014°16'614.6
2017-Sep-03 12:00N 27°19' W 014°12'814.5
2017-Sep-03 11:26N 27°25' W 014°06'614.8
2017-Sep-03 11:00N 27°30' W 014°02'915.5
2017-Sep-03 10:23N 27°37' W 013°55'615.1
2017-Sep-03 10:00N 27°42' W 013°50'815.1
2017-Sep-03 09:29N 27°48' W 013°45'714.9
2017-Sep-03 09:00N 27°53' W 013°40'714.7
2017-Sep-03 08:30N 27°59' W 013°34'714.7
2017-Sep-03 08:00N 28°05' W 013°30'814.5
2017-Sep-03 07:27N 28°12' W 013°25'614.6
2017-Sep-03 07:00N 28°17' W 013°21'814.7
2017-Sep-03 06:29N 28°24' W 013°16'715.1
2017-Sep-03 06:00N 28°30' W 013°12'715.1
2017-Sep-03 05:30N 28°36' W 013°07'3414.9
2017-Sep-03 03:15N 29°04' W 012°46'54914.3
2017-Sep-01 12:47N 35°58' W 005°38'413.1
2017-Sep-01 12:30N 35°59' W 005°33'713.7
2017-Sep-01 12:00N 36°01' W 005°25'611.9
2017-Sep-01 11:30N 36°07' W 005°24'2 0.4
2017-Sep-01 06:08N 36°09' W 005°25'0 0.1
2017-Sep-01 05:59N 36°09' W 005°25'0 0.0
2017-Sep-01 05:26N 36°09' W 005°25'0 0.0
2017-Sep-01 04:59N 36°09' W 005°25'0 0.0
2017-Sep-01 04:29N 36°09' W 005°25'0 0.0
2017-Sep-01 03:56N 36°09' W 005°25'0 0.0
2017-Sep-01 03:29N 36°09' W 005°25'0 0.0
2017-Sep-01 02:59N 36°09' W 005°25'0 0.1
2017-Sep-01 02:29N 36°09' W 005°25'0 0.2
2017-Sep-01 01:59N 36°09' W 005°25'0 1.0
2017-Sep-01 01:29N 36°09' W 005°24'1 1.9
2017-Sep-01 01:00N 36°08' W 005°24'2 3.1
2017-Sep-01 00:30N 36°07' W 005°23'3 5.5
2017-Sep-01 00:00N 36°05' W 005°21'5 9.7
2017-Aug-31 23:30N 36°05' W 005°15'510.5
2017-Aug-31 23:00N 36°06' W 005°08'611.1
2017-Aug-31 22:29N 36°07' W 005°01'  
2017-Aug-29 04:36N 37°27' W 001°04'42 7.1
2017-Aug-28 22:39N 36°52' W 001°33'1 6.5
2017-Aug-28 22:30N 36°51' W 001°34'18010.9
2017-Aug-28 06:02N 36°01' W 005°08'115.3
2017-Aug-28 05:59N 36°01' W 005°09'715.5
2017-Aug-28 05:31N 35°60' W 005°18'815.0
2017-Aug-28 05:00N 35°57' W 005°27'713.8
2017-Aug-28 04:29N 35°55' W 005°35'712.7
2017-Aug-28 03:58N 35°54' W 005°43'712.4
2017-Aug-28 03:24N 35°53' W 005°51'  
2017-Aug-25 20:41N 31°15' W 019°03'212.5
2017-Aug-25 20:30N 31°14' W 019°05'612.5
2017-Aug-25 20:00N 31°12' W 019°12'612.4
2017-Aug-25 19:30N 31°10' W 019°19'812.3
2017-Aug-25 18:51N 31°07' W 019°27'712.3
2017-Aug-25 18:15N 31°04' W 019°35'312.3
2017-Aug-25 18:00N 31°03' W 019°39'612.5
2017-Aug-25 17:31N 31°01' W 019°46'2412.6
2017-Aug-25 15:36N 30°53' W 020°12'1512.6
2017-Aug-25 14:24N 30°47' W 020°28'  

Dump ship's entire track history